la Seu d'Urgell, Spain
Current Conditions -  °F | °C
As of 2:30 PM on Saturday 25 Oct 2014 (Local Time) from LELL Reporting Station
Clear Clear  
Wind Chill: 28°   Ceiling: Unl
Heat Index: 28°   Visibility: 6mi
Dew Point: 12°   Wind: 3mph
Humidity: 37%   Direction: 180°S
Pressure: 30.06"   Gusts: NA
Location:  42.36°N, 1.46°E
Report Text: LELL 251230Z 18003KT 130V260 CAVOK 28/12 Q1018
Loading
Personal Weather Stations






























Interactive Weather Map
Tropical Storm Tracking
New forecast layout! Learn more

10-Day Weather Forecast

Advertisements
Track Severe Weather on mobile